sensor_id;sensor_type;location;lat;lon;timestamp;temperature;humidity
11387;DHT22;5748;53.102;8.456;2023-06-14T00:00:32;20.30;34.30
11387;DHT22;5748;53.102;8.456;2023-06-14T00:02:59;20.30;34.50
11387;DHT22;5748;53.102;8.456;2023-06-14T00:05:26;20.20;34.50
11387;DHT22;5748;53.102;8.456;2023-06-14T00:07:55;20.20;34.70
11387;DHT22;5748;53.102;8.456;2023-06-14T00:10:23;20.10;34.80
11387;DHT22;5748;53.102;8.456;2023-06-14T00:12:50;20.10;34.80
11387;DHT22;5748;53.102;8.456;2023-06-14T00:15:17;20.10;35.00
11387;DHT22;5748;53.102;8.456;2023-06-14T00:17:44;20.00;35.10
11387;DHT22;5748;53.102;8.456;2023-06-14T00:20:12;19.50;34.70
11387;DHT22;5748;53.102;8.456;2023-06-14T00:22:39;20.00;35.30
11387;DHT22;5748;53.102;8.456;2023-06-14T00:25:07;20.00;35.40
11387;DHT22;5748;53.102;8.456;2023-06-14T00:27:35;19.90;35.60
11387;DHT22;5748;53.102;8.456;2023-06-14T00:30:02;19.80;35.70
11387;DHT22;5748;53.102;8.456;2023-06-14T00:32:29;19.80;35.60
11387;DHT22;5748;53.102;8.456;2023-06-14T00:34:56;19.80;35.70
11387;DHT22;5748;53.102;8.456;2023-06-14T00:37:23;19.80;35.80
11387;DHT22;5748;53.102;8.456;2023-06-14T00:39:50;19.80;36.00
11387;DHT22;5748;53.102;8.456;2023-06-14T00:42:24;19.70;35.90
11387;DHT22;5748;53.102;8.456;2023-06-14T00:44:53;19.70;36.90
11387;DHT22;5748;53.102;8.456;2023-06-14T00:47:20;19.70;36.40
11387;DHT22;5748;53.102;8.456;2023-06-14T00:49:48;19.70;36.30
11387;DHT22;5748;53.102;8.456;2023-06-14T00:52:16;19.70;36.60
11387;DHT22;5748;53.102;8.456;2023-06-14T00:54:44;19.60;36.50
11387;DHT22;5748;53.102;8.456;2023-06-14T00:57:12;19.50;36.50
11387;DHT22;5748;53.102;8.456;2023-06-14T00:59:43;19.60;36.70
11387;DHT22;5748;53.102;8.456;2023-06-14T01:02:12;19.50;37.00
11387;DHT22;5748;53.102;8.456;2023-06-14T01:04:43;19.50;36.90
11387;DHT22;5748;53.102;8.456;2023-06-14T01:07:20;19.40;37.00
11387;DHT22;5748;53.102;8.456;2023-06-14T01:10:21;19.40;37.50
11387;DHT22;5748;53.102;8.456;2023-06-14T01:13:02;19.40;38.80
11387;DHT22;5748;53.102;8.456;2023-06-14T01:15:32;19.40;37.10
11387;DHT22;5748;53.102;8.456;2023-06-14T01:18:01;19.40;37.20
11387;DHT22;5748;53.102;8.456;2023-06-14T01:20:30;19.30;37.30
11387;DHT22;5748;53.102;8.456;2023-06-14T01:23:00;19.30;37.40
11387;DHT22;5748;53.102;8.456;2023-06-14T01:25:27;19.30;37.50
11387;DHT22;5748;53.102;8.456;2023-06-14T01:27:57;19.20;37.30
11387;DHT22;5748;53.102;8.456;2023-06-14T01:30:25;19.20;37.70
11387;DHT22;5748;53.102;8.456;2023-06-14T01:32:54;19.20;37.60
11387;DHT22;5748;53.102;8.456;2023-06-14T01:35:22;19.20;37.70
11387;DHT22;5748;53.102;8.456;2023-06-14T01:37:49;19.10;37.60
11387;DHT22;5748;53.102;8.456;2023-06-14T01:40:19;19.10;37.70
11387;DHT22;5748;53.102;8.456;2023-06-14T01:42:49;19.10;38.10
11387;DHT22;5748;53.102;8.456;2023-06-14T01:45:17;19.00;37.80
11387;DHT22;5748;53.102;8.456;2023-06-14T01:47:45;19.00;37.90
11387;DHT22;5748;53.102;8.456;2023-06-14T01:50:13;19.00;38.00
11387;DHT22;5748;53.102;8.456;2023-06-14T01:52:40;19.00;38.00
11387;DHT22;5748;53.102;8.456;2023-06-14T01:55:07;18.90;38.00
11387;DHT22;5748;53.102;8.456;2023-06-14T01:57:36;18.90;38.20
11387;DHT22;5748;53.102;8.456;2023-06-14T02:00:04;18.90;38.30
11387;DHT22;5748;53.102;8.456;2023-06-14T02:02:35;18.80;38.20
11387;DHT22;5748;53.102;8.456;2023-06-14T02:05:03;18.80;38.20
11387;DHT22;5748;53.102;8.456;2023-06-14T02:07:30;18.70;38.40
11387;DHT22;5748;53.102;8.456;2023-06-14T02:09:57;19.30;38.80
11387;DHT22;5748;53.102;8.456;2023-06-14T02:12:24;18.70;38.40
11387;DHT22;5748;53.102;8.456;2023-06-14T02:14:52;18.60;38.40
11387;DHT22;5748;53.102;8.456;2023-06-14T02:17:19;18.60;38.70
11387;DHT22;5748;53.102;8.456;2023-06-14T02:19:46;18.60;38.70
11387;DHT22;5748;53.102;8.456;2023-06-14T02:22:14;18.50;38.80
11387;DHT22;5748;53.102;8.456;2023-06-14T02:24:41;18.50;39.00
11387;DHT22;5748;53.102;8.456;2023-06-14T02:27:08;18.40;39.00
11387;DHT22;5748;53.102;8.456;2023-06-14T02:29:36;18.40;39.10
11387;DHT22;5748;53.102;8.456;2023-06-14T02:32:04;18.40;39.20
11387;DHT22;5748;53.102;8.456;2023-06-14T02:34:32;18.30;39.50
11387;DHT22;5748;53.102;8.456;2023-06-14T02:36:59;15.90;37.30
11387;DHT22;5748;53.102;8.456;2023-06-14T02:39:28;18.30;39.40
11387;DHT22;5748;53.102;8.456;2023-06-14T02:41:55;18.20;39.40
11387;DHT22;5748;53.102;8.456;2023-06-14T02:44:24;18.20;39.60
11387;DHT22;5748;53.102;8.456;2023-06-14T02:46:52;18.20;39.90
11387;DHT22;5748;53.102;8.456;2023-06-14T02:49:20;18.10;39.60
11387;DHT22;5748;53.102;8.456;2023-06-14T02:51:47;18.10;39.90
11387;DHT22;5748;53.102;8.456;2023-06-14T02:54:14;18.10;39.80
11387;DHT22;5748;53.102;8.456;2023-06-14T02:56:41;18.10;39.90
11387;DHT22;5748;53.102;8.456;2023-06-14T02:59:08;18.00;39.90
11387;DHT22;5748;53.102;8.456;2023-06-14T03:01:35;18.00;40.00
11387;DHT22;5748;53.102;8.456;2023-06-14T03:04:06;18.00;40.00
11387;DHT22;5748;53.102;8.456;2023-06-14T03:06:34;17.90;40.10
11387;DHT22;5748;53.102;8.456;2023-06-14T03:09:02;17.90;40.30
11387;DHT22;5748;53.102;8.456;2023-06-14T03:11:31;17.90;40.40
11387;DHT22;5748;53.102;8.456;2023-06-14T03:13:58;17.90;39.90
11387;DHT22;5748;53.102;8.456;2023-06-14T03:16:25;17.90;40.40
11387;DHT22;5748;53.102;8.456;2023-06-14T03:18:54;17.80;40.40
11387;DHT22;5748;53.102;8.456;2023-06-14T03:21:21;17.80;40.60
11387;DHT22;5748;53.102;8.456;2023-06-14T03:23:49;17.80;40.70
11387;DHT22;5748;53.102;8.456;2023-06-14T03:26:16;17.70;40.80
11387;DHT22;5748;53.102;8.456;2023-06-14T03:28:44;17.70;40.70
11387;DHT22;5748;53.102;8.456;2023-06-14T03:31:11;17.70;40.80
11387;DHT22;5748;53.102;8.456;2023-06-14T03:33:38;17.70;41.00
11387;DHT22;5748;53.102;8.456;2023-06-14T03:36:06;17.70;41.10
11387;DHT22;5748;53.102;8.456;2023-06-14T03:38:33;17.70;41.20
11387;DHT22;5748;53.102;8.456;2023-06-14T03:41:02;17.60;41.20
11387;DHT22;5748;53.102;8.456;2023-06-14T03:43:28;17.60;41.30
11387;DHT22;5748;53.102;8.456;2023-06-14T03:45:56;17.60;41.30
11387;DHT22;5748;53.102;8.456;2023-06-14T03:48:23;17.60;41.40
11387;DHT22;5748;53.102;8.456;2023-06-14T03:50:51;17.60;41.40
11387;DHT22;5748;53.102;8.456;2023-06-14T03:53:17;17.60;41.50
11387;DHT22;5748;53.102;8.456;2023-06-14T03:55:45;17.60;41.60
11387;DHT22;5748;53.102;8.456;2023-06-14T03:58:15;17.60;41.60
11387;DHT22;5748;53.102;8.456;2023-06-14T04:00:42;17.60;41.90
11387;DHT22;5748;53.102;8.456;2023-06-14T04:03:09;17.60;41.80
11387;DHT22;5748;53.102;8.456;2023-06-14T04:05:35;17.60;41.90
11387;DHT22;5748;53.102;8.456;2023-06-14T04:08:02;17.60;42.00
11387;DHT22;5748;53.102;8.456;2023-06-14T04:10:30;17.60;42.00
11387;DHT22;5748;53.102;8.456;2023-06-14T04:12:56;17.60;41.70
11387;DHT22;5748;53.102;8.456;2023-06-14T04:15:25;17.60;42.30
11387;DHT22;5748;53.102;8.456;2023-06-14T04:17:53;17.60;42.40
11387;DHT22;5748;53.102;8.456;2023-06-14T04:20:22;17.60;42.30
11387;DHT22;5748;53.102;8.456;2023-06-14T04:22:50;17.60;42.40
11387;DHT22;5748;53.102;8.456;2023-06-14T04:25:18;17.60;42.40
11387;DHT22;5748;53.102;8.456;2023-06-14T04:27:46;17.70;42.70
11387;DHT22;5748;53.102;8.456;2023-06-14T04:30:13;17.70;42.70
11387;DHT22;5748;53.102;8.456;2023-06-14T04:32:42;17.70;42.80
11387;DHT22;5748;53.102;8.456;2023-06-14T04:35:09;17.70;42.90
11387;DHT22;5748;53.102;8.456;2023-06-14T04:37:36;17.80;42.90
11387;DHT22;5748;53.102;8.456;2023-06-14T04:40:10;17.80;43.00
11387;DHT22;5748;53.102;8.456;2023-06-14T04:42:37;17.80;43.20
11387;DHT22;5748;53.102;8.456;2023-06-14T04:45:07;17.80;44.20
11387;DHT22;5748;53.102;8.456;2023-06-14T04:47:35;17.90;43.40
11387;DHT22;5748;53.102;8.456;2023-06-14T04:50:04;17.90;43.40
11387;DHT22;5748;53.102;8.456;2023-06-14T04:52:32;17.90;43.60
11387;DHT22;5748;53.102;8.456;2023-06-14T04:55:00;18.00;43.50
11387;DHT22;5748;53.102;8.456;2023-06-14T04:57:28;18.00;43.60
11387;DHT22;5748;53.102;8.456;2023-06-14T04:59:56;18.10;43.70
11387;DHT22;5748;53.102;8.456;2023-06-14T05:02:26;18.10;43.70
11387;DHT22;5748;53.102;8.456;2023-06-14T05:04:54;18.20;43.90
11387;DHT22;5748;53.102;8.456;2023-06-14T05:07:23;18.20;43.90
11387;DHT22;5748;53.102;8.456;2023-06-14T05:09:50;18.30;44.00
11387;DHT22;5748;53.102;8.456;2023-06-14T05:12:17;18.30;44.60
11387;DHT22;5748;53.102;8.456;2023-06-14T05:14:44;18.50;44.40
11387;DHT22;5748;53.102;8.456;2023-06-14T05:17:11;18.70;44.90
11387;DHT22;5748;53.102;8.456;2023-06-14T05:19:38;19.10;45.50
11387;DHT22;5748;53.102;8.456;2023-06-14T05:22:05;19.60;46.00
11387;DHT22;5748;53.102;8.456;2023-06-14T05:24:33;20.20;46.20
11387;DHT22;5748;53.102;8.456;2023-06-14T05:27:00;20.80;46.90
11387;DHT22;5748;53.102;8.456;2023-06-14T05:29:27;21.50;46.10
11387;DHT22;5748;53.102;8.456;2023-06-14T05:31:54;22.20;45.80
11387;DHT22;5748;53.102;8.456;2023-06-14T05:34:21;22.80;45.30
11387;DHT22;5748;53.102;8.456;2023-06-14T05:36:48;23.30;45.00
11387;DHT22;5748;53.102;8.456;2023-06-14T05:39:15;23.80;44.70
11387;DHT22;5748;53.102;8.456;2023-06-14T05:41:43;24.30;44.20
11387;DHT22;5748;53.102;8.456;2023-06-14T05:44:10;25.10;43.50
11387;DHT22;5748;53.102;8.456;2023-06-14T05:46:37;25.10;43.60
11387;DHT22;5748;53.102;8.456;2023-06-14T05:49:05;25.60;43.40
11387;DHT22;5748;53.102;8.456;2023-06-14T05:51:32;25.90;43.10
11387;DHT22;5748;53.102;8.456;2023-06-14T05:53:59;26.60;42.50
11387;DHT22;5748;53.102;8.456;2023-06-14T05:56:26;26.60;42.90
11387;DHT22;5748;53.102;8.456;2023-06-14T05:58:54;27.00;42.60
11387;DHT22;5748;53.102;8.456;2023-06-14T06:01:21;27.50;42.40
11387;DHT22;5748;53.102;8.456;2023-06-14T06:03:48;27.80;42.20
11387;DHT22;5748;53.102;8.456;2023-06-14T06:06:15;28.20;41.90
11387;DHT22;5748;53.102;8.456;2023-06-14T06:08:42;28.50;41.70
11387;DHT22;5748;53.102;8.456;2023-06-14T06:11:09;28.90;41.40
11387;DHT22;5748;53.102;8.456;2023-06-14T06:13:37;29.20;40.90
11387;DHT22;5748;53.102;8.456;2023-06-14T06:16:05;29.50;40.60
11387;DHT22;5748;53.102;8.456;2023-06-14T06:18:32;29.70;40.30
11387;DHT22;5748;53.102;8.456;2023-06-14T06:21:00;29.90;40.10
11387;DHT22;5748;53.102;8.456;2023-06-14T06:23:28;30.20;40.00
11387;DHT22;5748;53.102;8.456;2023-06-14T06:25:55;30.40;39.70
11387;DHT22;5748;53.102;8.456;2023-06-14T06:28:22;30.60;39.70
11387;DHT22;5748;53.102;8.456;2023-06-14T06:30:49;30.80;39.60
11387;DHT22;5748;53.102;8.456;2023-06-14T06:33:17;31.00;39.50
11387;DHT22;5748;53.102;8.456;2023-06-14T06:35:44;31.20;39.20
11387;DHT22;5748;53.102;8.456;2023-06-14T06:38:11;31.40;39.00
11387;DHT22;5748;53.102;8.456;2023-06-14T06:40:38;31.60;38.60
11387;DHT22;5748;53.102;8.456;2023-06-14T06:43:05;31.70;38.50
11387;DHT22;5748;53.102;8.456;2023-06-14T06:45:32;31.90;38.60
11387;DHT22;5748;53.102;8.456;2023-06-14T06:47:58;32.10;38.70
11387;DHT22;5748;53.102;8.456;2023-06-14T06:50:27;32.30;38.70
11387;DHT22;5748;53.102;8.456;2023-06-14T06:52:54;32.60;38.50
11387;DHT22;5748;53.102;8.456;2023-06-14T06:55:21;32.80;38.40
11387;DHT22;5748;53.102;8.456;2023-06-14T06:57:48;33.00;38.20
11387;DHT22;5748;53.102;8.456;2023-06-14T07:00:18;33.20;38.30
11387;DHT22;5748;53.102;8.456;2023-06-14T07:02:45;33.40;38.20
11387;DHT22;5748;53.102;8.456;2023-06-14T07:05:13;33.80;38.10
11387;DHT22;5748;53.102;8.456;2023-06-14T07:07:44;34.00;37.80
11387;DHT22;5748;53.102;8.456;2023-06-14T07:10:11;34.20;37.10
11387;DHT22;5748;53.102;8.456;2023-06-14T07:12:38;34.40;36.40
11387;DHT22;5748;53.102;8.456;2023-06-14T07:15:06;34.40;35.90
11387;DHT22;5748;53.102;8.456;2023-06-14T07:17:34;34.20;35.20
11387;DHT22;5748;53.102;8.456;2023-06-14T07:20:02;33.80;35.10
11387;DHT22;5748;53.102;8.456;2023-06-14T07:22:37;33.40;34.80
11387;DHT22;5748;53.102;8.456;2023-06-14T07:25:08;33.00;34.70
11387;DHT22;5748;53.102;8.456;2023-06-14T07:27:37;32.50;35.20
11387;DHT22;5748;53.102;8.456;2023-06-14T07:30:06;32.00;34.70
11387;DHT22;5748;53.102;8.456;2023-06-14T07:32:34;31.50;35.00
11387;DHT22;5748;53.102;8.456;2023-06-14T07:35:01;31.10;35.00
11387;DHT22;5748;53.102;8.456;2023-06-14T07:37:28;30.70;35.40
11387;DHT22;5748;53.102;8.456;2023-06-14T07:39:56;30.30;35.70
11387;DHT22;5748;53.102;8.456;2023-06-14T07:42:24;30.00;37.00
11387;DHT22;5748;53.102;8.456;2023-06-14T07:44:51;29.90;37.20
11387;DHT22;5748;53.102;8.456;2023-06-14T07:47:19;30.00;38.20
11387;DHT22;5748;53.102;8.456;2023-06-14T07:49:46;30.30;38.80
11387;DHT22;5748;53.102;8.456;2023-06-14T07:52:13;30.80;39.20
11387;DHT22;5748;53.102;8.456;2023-06-14T07:54:40;31.40;39.40
11387;DHT22;5748;53.102;8.456;2023-06-14T07:57:07;32.10;39.40
11387;DHT22;5748;53.102;8.456;2023-06-14T07:59:35;32.80;38.30
11387;DHT22;5748;53.102;8.456;2023-06-14T08:02:03;33.50;37.90
11387;DHT22;5748;53.102;8.456;2023-06-14T08:04:31;34.20;37.70
11387;DHT22;5748;53.102;8.456;2023-06-14T08:06:58;34.80;37.30
11387;DHT22;5748;53.102;8.456;2023-06-14T08:09:26;35.40;36.40
11387;DHT22;5748;53.102;8.456;2023-06-14T08:11:54;35.90;36.00
11387;DHT22;5748;53.102;8.456;2023-06-14T08:14:21;36.40;35.60
11387;DHT22;5748;53.102;8.456;2023-06-14T08:16:49;36.80;35.20
11387;DHT22;5748;53.102;8.456;2023-06-14T08:19:16;37.30;34.60
11387;DHT22;5748;53.102;8.456;2023-06-14T08:21:43;37.70;33.90
11387;DHT22;5748;53.102;8.456;2023-06-14T08:24:11;38.00;32.90
11387;DHT22;5748;53.102;8.456;2023-06-14T08:26:39;38.30;32.70
11387;DHT22;5748;53.102;8.456;2023-06-14T08:29:06;38.50;32.10
11387;DHT22;5748;53.102;8.456;2023-06-14T08:31:34;38.70;31.80
11387;DHT22;5748;53.102;8.456;2023-06-14T08:34:02;38.80;30.00
11387;DHT22;5748;53.102;8.456;2023-06-14T08:36:29;38.90;31.00
11387;DHT22;5748;53.102;8.456;2023-06-14T08:38:56;39.00;30.80
11387;DHT22;5748;53.102;8.456;2023-06-14T08:41:23;39.20;31.00
11387;DHT22;5748;53.102;8.456;2023-06-14T08:43:50;39.40;30.70
11387;DHT22;5748;53.102;8.456;2023-06-14T08:46:18;39.60;30.60
11387;DHT22;5748;53.102;8.456;2023-06-14T08:48:47;39.90;30.80
11387;DHT22;5748;53.102;8.456;2023-06-14T08:51:18;40.20;30.30
11387;DHT22;5748;53.102;8.456;2023-06-14T08:53:51;40.40;29.50
11387;DHT22;5748;53.102;8.456;2023-06-14T08:56:23;40.50;29.40
11387;DHT22;5748;53.102;8.456;2023-06-14T08:58:53;40.70;29.60
11387;DHT22;5748;53.102;8.456;2023-06-14T09:01:22;40.90;29.20
11387;DHT22;5748;53.102;8.456;2023-06-14T09:03:49;41.00;29.10
11387;DHT22;5748;53.102;8.456;2023-06-14T09:06:17;41.10;29.00
11387;DHT22;5748;53.102;8.456;2023-06-14T09:08:46;41.20;28.60
11387;DHT22;5748;53.102;8.456;2023-06-14T09:11:16;41.30;28.30
11387;DHT22;5748;53.102;8.456;2023-06-14T09:13:45;41.30;28.40
11387;DHT22;5748;53.102;8.456;2023-06-14T09:16:12;41.40;28.60
11387;DHT22;5748;53.102;8.456;2023-06-14T09:18:40;41.50;28.60
11387;DHT22;5748;53.102;8.456;2023-06-14T09:21:10;41.80;28.60
11387;DHT22;5748;53.102;8.456;2023-06-14T09:23:40;42.00;28.60
11387;DHT22;5748;53.102;8.456;2023-06-14T09:26:09;42.30;28.20
11387;DHT22;5748;53.102;8.456;2023-06-14T09:28:37;42.50;28.20
11387;DHT22;5748;53.102;8.456;2023-06-14T09:31:07;42.60;28.10
11387;DHT22;5748;53.102;8.456;2023-06-14T09:33:35;42.80;27.90
11387;DHT22;5748;53.102;8.456;2023-06-14T09:36:03;43.00;27.70
11387;DHT22;5748;53.102;8.456;2023-06-14T09:38:30;43.20;27.60
11387;DHT22;5748;53.102;8.456;2023-06-14T09:40:59;43.30;27.50
11387;DHT22;5748;53.102;8.456;2023-06-14T09:43:26;43.40;27.20
11387;DHT22;5748;53.102;8.456;2023-06-14T09:45:54;43.90;27.30
11387;DHT22;5748;53.102;8.456;2023-06-14T09:48:21;43.50;26.80
11387;DHT22;5748;53.102;8.456;2023-06-14T09:50:49;43.60;26.90
11387;DHT22;5748;53.102;8.456;2023-06-14T09:53:20;43.60;26.80
11387;DHT22;5748;53.102;8.456;2023-06-14T09:55:49;43.70;26.50
11387;DHT22;5748;53.102;8.456;2023-06-14T09:58:20;43.80;26.60
11387;DHT22;5748;53.102;8.456;2023-06-14T10:00:50;43.80;25.90
11387;DHT22;5748;53.102;8.456;2023-06-14T10:03:23;43.80;26.10
11387;DHT22;5748;53.102;8.456;2023-06-14T10:05:52;43.80;26.00
11387;DHT22;5748;53.102;8.456;2023-06-14T10:08:24;43.70;25.90
11387;DHT22;5748;53.102;8.456;2023-06-14T10:10:52;43.70;25.60
11387;DHT22;5748;53.102;8.456;2023-06-14T10:13:21;43.60;25.80
11387;DHT22;5748;53.102;8.456;2023-06-14T10:15:54;43.50;25.60
11387;DHT22;5748;53.102;8.456;2023-06-14T10:18:31;43.50;25.30
11387;DHT22;5748;53.102;8.456;2023-06-14T10:21:06;43.30;25.30
11387;DHT22;5748;53.102;8.456;2023-06-14T10:23:41;43.20;25.30
11387;DHT22;5748;53.102;8.456;2023-06-14T10:26:18;43.30;25.40
11387;DHT22;5748;53.102;8.456;2023-06-14T10:28:58;43.20;24.70
11387;DHT22;5748;53.102;8.456;2023-06-14T10:31:43;43.10;24.70
11387;DHT22;5748;53.102;8.456;2023-06-14T10:34:11;43.00;24.80
11387;DHT22;5748;53.102;8.456;2023-06-14T10:36:41;43.00;25.40
11387;DHT22;5748;53.102;8.456;2023-06-14T10:39:14;43.10;25.40
11387;DHT22;5748;53.102;8.456;2023-06-14T10:41:51;43.20;25.40
11387;DHT22;5748;53.102;8.456;2023-06-14T10:44:41;43.40;25.10
11387;DHT22;5748;53.102;8.456;2023-06-14T10:47:13;43.50;24.90
11387;DHT22;5748;53.102;8.456;2023-06-14T10:49:50;43.50;25.00
11387;DHT22;5748;53.102;8.456;2023-06-14T10:52:22;43.50;25.10
11387;DHT22;5748;53.102;8.456;2023-06-14T10:55:05;43.60;25.00
11387;DHT22;5748;53.102;8.456;2023-06-14T10:57:37;43.60;24.20
11387;DHT22;5748;53.102;8.456;2023-06-14T11:00:08;43.50;24.60
11387;DHT22;5748;53.102;8.456;2023-06-14T11:02:51;43.30;24.50
11387;DHT22;5748;53.102;8.456;2023-06-14T11:05:24;43.20;24.00
11387;DHT22;5748;53.102;8.456;2023-06-14T11:08:04;43.10;24.20
11387;DHT22;5748;53.102;8.456;2023-06-14T11:10:43;43.00;24.20
11387;DHT22;5748;53.102;8.456;2023-06-14T11:13:11;43.00;24.60
11387;DHT22;5748;53.102;8.456;2023-06-14T11:15:45;42.90;24.40
11387;DHT22;5748;53.102;8.456;2023-06-14T11:18:13;42.80;23.90
11387;DHT22;5748;53.102;8.456;2023-06-14T11:20:42;42.60;24.10
11387;DHT22;5748;53.102;8.456;2023-06-14T11:23:09;42.40;23.90
11387;DHT22;5748;53.102;8.456;2023-06-14T11:25:36;42.20;23.70
11387;DHT22;5748;53.102;8.456;2023-06-14T11:28:03;41.80;23.70
11387;DHT22;5748;53.102;8.456;2023-06-14T11:30:30;41.60;24.00
11387;DHT22;5748;53.102;8.456;2023-06-14T11:32:59;41.30;23.50
11387;DHT22;5748;53.102;8.456;2023-06-14T11:35:27;40.90;23.40
11387;DHT22;5748;53.102;8.456;2023-06-14T11:37:54;40.70;23.80
11387;DHT22;5748;53.102;8.456;2023-06-14T11:40:24;40.60;24.10
11387;DHT22;5748;53.102;8.456;2023-06-14T11:42:58;40.30;24.10
11387;DHT22;5748;53.102;8.456;2023-06-14T11:45:26;40.20;24.20
11387;DHT22;5748;53.102;8.456;2023-06-14T11:47:55;40.20;24.00
11387;DHT22;5748;53.102;8.456;2023-06-14T11:50:24;40.00;23.90
11387;DHT22;5748;53.102;8.456;2023-06-14T11:52:53;39.90;24.20
11387;DHT22;5748;53.102;8.456;2023-06-14T11:55:20;39.70;24.40
11387;DHT22;5748;53.102;8.456;2023-06-14T11:57:47;39.60;24.20
11387;DHT22;5748;53.102;8.456;2023-06-14T12:00:15;39.50;24.00
11387;DHT22;5748;53.102;8.456;2023-06-14T12:02:51;39.30;23.90
11387;DHT22;5748;53.102;8.456;2023-06-14T12:05:20;39.00;23.70
11387;DHT22;5748;53.102;8.456;2023-06-14T12:07:49;38.60;23.80
11387;DHT22;5748;53.102;8.456;2023-06-14T12:10:19;38.40;24.10
11387;DHT22;5748;53.102;8.456;2023-06-14T12:12:46;38.40;24.40
11387;DHT22;5748;53.102;8.456;2023-06-14T12:15:13;38.40;24.60
11387;DHT22;5748;53.102;8.456;2023-06-14T12:17:41;38.30;24.20
11387;DHT22;5748;53.102;8.456;2023-06-14T12:20:11;38.20;24.00
11387;DHT22;5748;53.102;8.456;2023-06-14T12:22:39;37.90;23.60
11387;DHT22;5748;53.102;8.456;2023-06-14T12:25:27;37.50;23.50
11387;DHT22;5748;53.102;8.456;2023-06-14T12:27:56;37.00;23.70
11387;DHT22;5748;53.102;8.456;2023-06-14T12:30:24;36.70;23.90
11387;DHT22;5748;53.102;8.456;2023-06-14T12:32:51;36.40;24.00
11387;DHT22;5748;53.102;8.456;2023-06-14T12:35:18;36.10;24.00
11387;DHT22;5748;53.102;8.456;2023-06-14T12:37:45;35.80;24.10
11387;DHT22;5748;53.102;8.456;2023-06-14T12:40:13;35.40;24.00
11387;DHT22;5748;53.102;8.456;2023-06-14T12:42:42;35.10;24.20
11387;DHT22;5748;53.102;8.456;2023-06-14T12:45:09;34.70;25.10
11387;DHT22;5748;53.102;8.456;2023-06-14T12:47:37;34.60;24.80
11387;DHT22;5748;53.102;8.456;2023-06-14T12:50:04;34.40;24.80
11387;DHT22;5748;53.102;8.456;2023-06-14T12:52:32;34.30;25.00
11387;DHT22;5748;53.102;8.456;2023-06-14T12:55:01;34.20;25.00
11387;DHT22;5748;53.102;8.456;2023-06-14T12:57:29;34.10;25.10
11387;DHT22;5748;53.102;8.456;2023-06-14T12:59:59;34.10;25.10
11387;DHT22;5748;53.102;8.456;2023-06-14T13:02:26;34.00;25.20
11387;DHT22;5748;53.102;8.456;2023-06-14T13:04:54;33.90;25.10
11387;DHT22;5748;53.102;8.456;2023-06-14T13:07:22;37.80;27.20
11387;DHT22;5748;53.102;8.456;2023-06-14T13:09:49;33.80;25.40
11387;DHT22;5748;53.102;8.456;2023-06-14T13:12:16;33.70;25.20
11387;DHT22;5748;53.102;8.456;2023-06-14T13:14:43;33.70;25.30
11387;DHT22;5748;53.102;8.456;2023-06-14T13:17:11;33.50;25.30
11387;DHT22;5748;53.102;8.456;2023-06-14T13:19:38;33.40;25.40
11387;DHT22;5748;53.102;8.456;2023-06-14T13:22:06;33.20;25.40
11387;DHT22;5748;53.102;8.456;2023-06-14T13:24:34;33.10;25.40
11387;DHT22;5748;53.102;8.456;2023-06-14T13:27:01;33.00;25.60
11387;DHT22;5748;53.102;8.456;2023-06-14T13:29:28;32.90;25.70
11387;DHT22;5748;53.102;8.456;2023-06-14T13:31:56;32.80;26.00
11387;DHT22;5748;53.102;8.456;2023-06-14T13:34:25;32.80;25.90
11387;DHT22;5748;53.102;8.456;2023-06-14T13:36:52;32.80;26.00
11387;DHT22;5748;53.102;8.456;2023-06-14T13:39:19;32.90;26.40
11387;DHT22;5748;53.102;8.456;2023-06-14T13:41:46;32.90;26.10
11387;DHT22;5748;53.102;8.456;2023-06-14T13:44:12;33.00;26.20
11387;DHT22;5748;53.102;8.456;2023-06-14T13:46:41;33.00;26.10
11387;DHT22;5748;53.102;8.456;2023-06-14T13:49:09;33.00;26.00
11387;DHT22;5748;53.102;8.456;2023-06-14T13:51:39;33.00;26.00
11387;DHT22;5748;53.102;8.456;2023-06-14T13:54:05;32.80;26.00
11387;DHT22;5748;53.102;8.456;2023-06-14T13:56:32;32.80;26.10
11387;DHT22;5748;53.102;8.456;2023-06-14T13:58:59;32.80;26.20
11387;DHT22;5748;53.102;8.456;2023-06-14T14:01:27;32.70;26.20
11387;DHT22;5748;53.102;8.456;2023-06-14T14:03:54;32.70;26.20
11387;DHT22;5748;53.102;8.456;2023-06-14T14:06:21;32.70;26.30
11387;DHT22;5748;53.102;8.456;2023-06-14T14:08:49;32.70;26.30
11387;DHT22;5748;53.102;8.456;2023-06-14T14:11:18;32.70;26.30
11387;DHT22;5748;53.102;8.456;2023-06-14T14:13:46;32.60;26.20
11387;DHT22;5748;53.102;8.456;2023-06-14T14:16:13;32.50;26.20
11387;DHT22;5748;53.102;8.456;2023-06-14T14:18:40;32.50;26.30
11387;DHT22;5748;53.102;8.456;2023-06-14T14:21:07;32.40;26.70
11387;DHT22;5748;53.102;8.456;2023-06-14T14:23:35;32.20;26.30
11387;DHT22;5748;53.102;8.456;2023-06-14T14:26:03;32.20;26.30
11387;DHT22;5748;53.102;8.456;2023-06-14T14:28:30;32.10;26.30
11387;DHT22;5748;53.102;8.456;2023-06-14T14:30:58;32.10;26.40
11387;DHT22;5748;53.102;8.456;2023-06-14T14:33:25;32.00;26.50
11387;DHT22;5748;53.102;8.456;2023-06-14T14:35:51;31.90;26.50
11387;DHT22;5748;53.102;8.456;2023-06-14T14:38:18;31.90;26.70
11387;DHT22;5748;53.102;8.456;2023-06-14T14:40:45;32.00;26.80
11387;DHT22;5748;53.102;8.456;2023-06-14T14:43:14;31.80;26.80
11387;DHT22;5748;53.102;8.456;2023-06-14T14:45:40;31.70;26.80
11387;DHT22;5748;53.102;8.456;2023-06-14T14:48:07;31.70;26.80
11387;DHT22;5748;53.102;8.456;2023-06-14T14:50:34;31.60;26.90
11387;DHT22;5748;53.102;8.456;2023-06-14T14:53:02;31.60;27.20
11387;DHT22;5748;53.102;8.456;2023-06-14T14:55:29;31.60;27.10
11387;DHT22;5748;53.102;8.456;2023-06-14T14:57:56;31.50;27.70
11387;DHT22;5748;53.102;8.456;2023-06-14T15:00:24;31.60;27.40
11387;DHT22;5748;53.102;8.456;2023-06-14T15:02:51;31.60;27.40
11387;DHT22;5748;53.102;8.456;2023-06-14T15:05:18;31.60;27.30
11387;DHT22;5748;53.102;8.456;2023-06-14T15:07:45;31.70;27.30
11387;DHT22;5748;53.102;8.456;2023-06-14T15:10:12;31.40;27.20
11387;DHT22;5748;53.102;8.456;2023-06-14T15:12:39;31.40;27.60
11387;DHT22;5748;53.102;8.456;2023-06-14T15:15:07;31.40;27.40
11387;DHT22;5748;53.102;8.456;2023-06-14T15:17:36;31.30;27.60
11387;DHT22;5748;53.102;8.456;2023-06-14T15:20:04;31.30;27.60
11387;DHT22;5748;53.102;8.456;2023-06-14T15:22:32;31.30;27.60
11387;DHT22;5748;53.102;8.456;2023-06-14T15:24:59;31.30;27.60
11387;DHT22;5748;53.102;8.456;2023-06-14T15:27:26;31.30;27.60
11387;DHT22;5748;53.102;8.456;2023-06-14T15:29:53;31.30;28.10
11387;DHT22;5748;53.102;8.456;2023-06-14T15:32:20;31.30;27.60
11387;DHT22;5748;53.102;8.456;2023-06-14T15:34:49;31.20;27.40
11387;DHT22;5748;53.102;8.456;2023-06-14T15:37:16;31.10;27.50
11387;DHT22;5748;53.102;8.456;2023-06-14T15:39:43;31.10;27.50
11387;DHT22;5748;53.102;8.456;2023-06-14T15:42:10;31.00;27.50
11387;DHT22;5748;53.102;8.456;2023-06-14T15:44:37;31.00;27.50
11387;DHT22;5748;53.102;8.456;2023-06-14T15:47:04;31.00;27.80
11387;DHT22;5748;53.102;8.456;2023-06-14T15:49:34;31.10;28.00
11387;DHT22;5748;53.102;8.456;2023-06-14T15:52:03;31.10;28.00